createdAt,value
2019-03-25T00:00:04.071Z,0.00
2019-03-25T00:01:04.046Z,0.00
2019-03-25T00:02:04.038Z,0.00
2019-03-25T00:03:04.027Z,0.00
2019-03-25T00:04:04.042Z,0.00
2019-03-25T00:05:04.004Z,0.00
2019-03-25T00:06:03.990Z,0.00
2019-03-25T00:07:04.003Z,0.00
2019-03-25T00:08:03.974Z,0.00
2019-03-25T00:09:05.651Z,0.00
2019-03-25T00:10:03.992Z,0.00
2019-03-25T00:11:03.936Z,0.00
2019-03-25T00:12:03.928Z,0.00
2019-03-25T00:13:04.019Z,0.00
2019-03-25T00:14:03.904Z,0.00
2019-03-25T00:15:03.913Z,0.00
2019-03-25T00:16:03.879Z,0.00
2019-03-25T00:17:03.871Z,0.00
2019-03-25T00:18:03.856Z,0.00
2019-03-25T00:19:03.853Z,0.00
2019-03-25T00:20:03.859Z,0.00
2019-03-25T00:21:03.820Z,0.00
2019-03-25T00:22:03.820Z,0.00
2019-03-25T00:23:03.805Z,0.00
2019-03-25T00:24:03.798Z,0.00
2019-03-25T00:25:03.794Z,0.00
2019-03-25T00:26:03.796Z,0.00
2019-03-25T00:27:03.754Z,0.00
2019-03-25T00:28:03.778Z,0.00
2019-03-25T00:29:03.810Z,0.00
2019-03-25T00:30:03.723Z,0.00
2019-03-25T00:31:03.712Z,0.00
2019-03-25T00:32:03.759Z,0.00
2019-03-25T00:33:03.696Z,0.00
2019-03-25T00:34:03.734Z,0.00
2019-03-25T00:35:03.672Z,0.00
2019-03-25T00:36:03.672Z,0.00
2019-03-25T00:37:03.664Z,0.00
2019-03-25T00:38:03.636Z,0.00
2019-03-25T00:39:03.632Z,0.00
2019-03-25T00:40:03.656Z,0.00
2019-03-25T00:41:03.606Z,0.00
2019-03-25T00:42:03.590Z,0.00
2019-03-25T00:43:03.584Z,0.00
2019-03-25T00:44:03.599Z,0.00
2019-03-25T00:45:03.558Z,0.00
2019-03-25T00:46:03.548Z,0.00
2019-03-25T00:47:03.546Z,0.00
2019-03-25T00:48:03.523Z,0.00
2019-03-25T00:49:03.525Z,0.00
2019-03-25T00:50:03.537Z,0.00
2019-03-25T00:51:03.500Z,0.00
2019-03-25T00:52:03.474Z,0.00
2019-03-25T00:53:03.514Z,0.00
2019-03-25T00:54:03.461Z,0.00
2019-03-25T00:55:03.472Z,0.00
2019-03-25T00:56:03.475Z,0.00
2019-03-25T00:57:03.420Z,0.00
2019-03-25T00:58:03.410Z,0.00
2019-03-25T00:59:03.403Z,0.00
2019-03-25T01:00:03.399Z,0.00
2019-03-25T01:01:03.386Z,0.00
2019-03-25T01:02:03.499Z,0.00
2019-03-25T01:03:03.398Z,0.00
2019-03-25T01:04:03.349Z,0.00
2019-03-25T01:05:03.367Z,0.00
2019-03-25T01:06:03.325Z,0.00
2019-03-25T01:07:03.318Z,0.00
2019-03-25T01:08:03.339Z,0.00
2019-03-25T01:09:03.451Z,0.00
2019-03-25T01:10:03.331Z,0.00
2019-03-25T01:11:03.273Z,0.00
2019-03-25T01:12:03.271Z,0.00
2019-03-25T01:13:03.281Z,0.00
2019-03-25T01:14:03.285Z,0.00
2019-03-25T01:15:03.223Z,0.00
2019-03-25T01:16:03.213Z,0.00
2019-03-25T01:17:03.198Z,0.00
2019-03-25T01:18:03.217Z,0.00
2019-03-25T01:19:03.201Z,0.00
2019-03-25T01:20:03.201Z,0.00
2019-03-25T01:21:03.152Z,0.00
2019-03-25T01:22:03.152Z,0.00
2019-03-25T01:23:03.164Z,0.00
2019-03-25T01:24:03.168Z,0.00
2019-03-25T01:25:03.263Z,0.00
2019-03-25T01:26:03.134Z,0.00
2019-03-25T01:27:03.096Z,0.00
2019-03-25T01:28:03.087Z,0.00
2019-03-25T01:29:03.077Z,0.00
2019-03-25T01:30:03.074Z,0.00
2019-03-25T01:31:03.047Z,0.00
2019-03-25T01:32:03.078Z,0.00
2019-03-25T01:33:03.028Z,0.00
2019-03-25T01:34:03.015Z,0.00
2019-03-25T01:35:03.032Z,0.00
2019-03-25T01:36:03.008Z,0.00
2019-03-25T01:37:02.977Z,0.00
2019-03-25T01:38:03.013Z,0.00
2019-03-25T01:39:02.963Z,0.00
2019-03-25T01:40:02.967Z,0.00
2019-03-25T01:41:02.947Z,0.00
2019-03-25T01:42:02.927Z,0.00
2019-03-25T01:43:02.956Z,0.00
2019-03-25T01:44:02.908Z,0.00
2019-03-25T01:45:02.930Z,0.00
2019-03-25T01:46:02.972Z,0.00
2019-03-25T01:47:02.878Z,0.00
2019-03-25T01:48:02.910Z,0.00
2019-03-25T01:49:02.999Z,0.00
2019-03-25T01:50:02.835Z,0.00
2019-03-25T01:51:02.829Z,0.00
2019-03-25T01:52:02.828Z,0.00
2019-03-25T01:53:02.808Z,0.00
2019-03-25T01:54:02.826Z,0.00
2019-03-25T01:55:13.010Z,0.00
2019-03-25T01:56:03.770Z,0.00
2019-03-25T01:57:02.768Z,0.00
2019-03-25T01:58:02.781Z,0.00
2019-03-25T01:59:02.786Z,0.00
2019-03-25T02:00:02.733Z,0.00
2019-03-25T02:01:02.718Z,0.00
2019-03-25T02:02:02.710Z,0.00
2019-03-25T02:03:02.718Z,0.00
2019-03-25T02:04:02.711Z,0.00
2019-03-25T02:05:02.820Z,0.00
2019-03-25T02:06:02.666Z,0.00
2019-03-25T02:07:02.652Z,0.00
2019-03-25T02:08:02.673Z,0.00
2019-03-25T02:09:02.627Z,0.00
2019-03-25T02:10:02.646Z,0.00
2019-03-25T02:11:02.625Z,0.00
2019-03-25T02:12:02.600Z,0.00
2019-03-25T02:13:02.588Z,0.00
2019-03-25T02:14:02.577Z,0.00
2019-03-25T02:15:02.559Z,0.00
2019-03-25T02:16:02.584Z,0.00
2019-03-25T02:17:02.538Z,0.00
2019-03-25T02:18:02.525Z,0.00
2019-03-25T02:19:02.522Z,0.00
2019-03-25T02:20:02.539Z,0.00
2019-03-25T02:21:02.607Z,0.00
2019-03-25T02:22:02.490Z,0.00
2019-03-25T02:23:02.747Z,0.00
2019-03-25T02:24:02.484Z,0.00
2019-03-25T02:25:02.454Z,0.00
2019-03-25T02:26:02.443Z,0.00
2019-03-25T02:27:02.428Z,0.00
2019-03-25T02:28:02.433Z,0.00
2019-03-25T02:29:02.603Z,0.00
2019-03-25T02:30:02.405Z,0.00
2019-03-25T02:31:02.438Z,0.00
2019-03-25T02:32:02.484Z,0.00
2019-03-25T02:33:02.366Z,0.00
2019-03-25T02:34:02.387Z,0.00
2019-03-25T02:35:02.375Z,0.00
2019-03-25T02:36:02.333Z,0.00
2019-03-25T02:37:02.317Z,0.00
2019-03-25T02:38:02.324Z,0.00
2019-03-25T02:39:02.335Z,0.00
2019-03-25T02:40:02.419Z,0.00
2019-03-25T02:41:02.302Z,0.00
2019-03-25T02:42:02.266Z,0.00
2019-03-25T02:43:02.253Z,0.00
2019-03-25T02:44:02.248Z,0.00
2019-03-25T02:45:02.870Z,0.00
2019-03-25T02:46:02.240Z,0.00
2019-03-25T02:47:02.205Z,0.00
2019-03-25T02:48:02.209Z,0.00
2019-03-25T02:49:02.247Z,0.00
2019-03-25T02:50:02.224Z,0.00
2019-03-25T02:51:02.216Z,0.00
2019-03-25T02:52:02.181Z,0.00
2019-03-25T02:53:02.178Z,0.00
2019-03-25T02:54:02.145Z,0.00
2019-03-25T02:55:02.118Z,0.00
2019-03-25T02:56:02.144Z,0.00
2019-03-25T02:57:02.107Z,0.00
2019-03-25T02:58:02.090Z,0.00
2019-03-25T02:59:02.119Z,0.00
2019-03-25T03:00:02.138Z,0.00
2019-03-25T03:01:02.053Z,0.00
2019-03-25T03:02:02.069Z,0.00
2019-03-25T03:03:02.027Z,0.00
2019-03-25T03:04:02.867Z,0.00
2019-03-25T03:05:02.017Z,0.00
2019-03-25T03:06:02.001Z,0.00
2019-03-25T03:07:02.039Z,0.00
2019-03-25T03:08:01.983Z,0.00
2019-03-25T03:09:01.986Z,0.00
2019-03-25T03:10:01.997Z,0.00
2019-03-25T03:11:01.979Z,0.00
2019-03-25T03:12:01.970Z,0.00
2019-03-25T03:13:01.920Z,0.00
2019-03-25T03:14:01.922Z,0.00
2019-03-25T03:15:01.951Z,0.00
2019-03-25T03:16:01.880Z,0.00
2019-03-25T03:17:01.879Z,0.00
2019-03-25T03:18:01.869Z,0.00
2019-03-25T03:19:01.848Z,0.00
2019-03-25T03:20:01.840Z,0.00
2019-03-25T03:21:01.862Z,0.00
2019-03-25T03:22:01.841Z,0.00
2019-03-25T03:23:01.812Z,0.00
2019-03-25T03:24:01.809Z,0.00
2019-03-25T03:25:01.816Z,0.00
2019-03-25T03:26:01.797Z,0.00
2019-03-25T03:27:01.767Z,0.00
2019-03-25T03:28:01.809Z,0.00
2019-03-25T03:29:01.776Z,0.00
2019-03-25T03:30:01.745Z,0.00
2019-03-25T03:31:01.741Z,0.00
2019-03-25T03:32:01.734Z,0.00
2019-03-25T03:33:01.708Z,0.00
2019-03-25T03:34:01.693Z,0.00
2019-03-25T03:35:01.688Z,0.00
2019-03-25T03:36:01.659Z,0.00
2019-03-25T03:37:01.663Z,0.00
2019-03-25T03:38:01.702Z,0.00
2019-03-25T03:39:01.632Z,0.00
2019-03-25T03:40:01.649Z,0.00
2019-03-25T03:41:01.713Z,0.00
2019-03-25T03:42:01.606Z,0.00
2019-03-25T03:43:01.594Z,0.00
2019-03-25T03:44:01.627Z,0.00
2019-03-25T03:45:01.633Z,0.00
2019-03-25T03:46:01.554Z,0.00
2019-03-25T03:47:01.546Z,0.00
2019-03-25T03:48:01.567Z,0.00
2019-03-25T03:49:01.533Z,0.00
2019-03-25T03:50:01.522Z,0.00
2019-03-25T03:51:01.553Z,0.00
2019-03-25T03:52:01.495Z,0.00
2019-03-25T03:53:01.480Z,0.00
2019-03-25T03:54:01.527Z,0.00
2019-03-25T03:55:01.462Z,0.00
2019-03-25T03:56:12.699Z,0.00
2019-03-25T03:57:02.459Z,0.00
2019-03-25T03:58:01.432Z,0.00
2019-03-25T03:59:01.438Z,0.00
2019-03-25T04:00:01.474Z,0.00
2019-03-25T04:01:01.428Z,0.00
2019-03-25T04:02:01.379Z,0.00
2019-03-25T04:03:01.376Z,0.00
2019-03-25T04:04:01.386Z,0.00
2019-03-25T04:05:01.546Z,0.00
2019-03-25T04:06:01.380Z,0.00
2019-03-25T04:07:01.352Z,0.00
2019-03-25T04:08:01.366Z,0.00
2019-03-25T04:09:01.296Z,0.00
2019-03-25T04:10:01.318Z,0.00
2019-03-25T04:11:01.269Z,0.00
2019-03-25T04:12:01.349Z,0.00
2019-03-25T04:13:01.259Z,0.00
2019-03-25T04:14:01.322Z,0.00
2019-03-25T04:15:01.232Z,0.00
2019-03-25T04:16:01.790Z,0.00
2019-03-25T04:17:01.234Z,0.00
2019-03-25T04:18:01.224Z,0.00
2019-03-25T04:19:01.189Z,0.00
2019-03-25T04:20:01.293Z,0.00
2019-03-25T04:21:01.213Z,0.00
2019-03-25T04:22:01.174Z,0.00
2019-03-25T04:23:01.138Z,0.00
2019-03-25T04:24:01.246Z,0.00
2019-03-25T04:25:01.170Z,0.00
2019-03-25T04:26:01.146Z,0.00
2019-03-25T04:27:01.194Z,0.00
2019-03-25T04:28:01.111Z,0.00
2019-03-25T04:29:01.109Z,0.00
2019-03-25T04:30:01.061Z,0.00
2019-03-25T04:31:01.094Z,0.00
2019-03-25T04:32:01.040Z,0.00
2019-03-25T04:33:01.041Z,0.00
2019-03-25T04:34:01.028Z,0.00
2019-03-25T04:35:01.129Z,0.00
2019-03-25T04:36:00.997Z,0.00
2019-03-25T04:37:00.976Z,0.00
2019-03-25T04:38:00.983Z,0.00
2019-03-25T04:39:00.972Z,0.00
2019-03-25T04:40:01.146Z,0.00
2019-03-25T04:41:00.969Z,0.00
2019-03-25T04:42:00.954Z,0.00
2019-03-25T04:43:00.922Z,0.00
2019-03-25T04:44:00.948Z,0.00
2019-03-25T04:45:00.941Z,0.00
2019-03-25T04:46:00.922Z,0.00
2019-03-25T04:47:00.882Z,0.00
2019-03-25T04:48:00.892Z,0.00
2019-03-25T04:49:00.864Z,0.00
2019-03-25T04:50:00.876Z,0.00
2019-03-25T04:51:00.868Z,0.00
2019-03-25T04:52:00.823Z,0.00
2019-03-25T04:53:00.812Z,0.00
2019-03-25T04:54:00.796Z,0.00
2019-03-25T04:55:00.800Z,0.00
2019-03-25T04:56:00.896Z,0.00
2019-03-25T04:57:00.784Z,0.00
2019-03-25T04:58:00.769Z,0.00
2019-03-25T04:59:00.750Z,0.00
2019-03-25T05:00:00.732Z,0.00
2019-03-25T05:01:00.882Z,4.00
2019-03-25T05:02:00.740Z,4.00
2019-03-25T05:03:00.722Z,0.00
2019-03-25T05:04:00.744Z,4.00
2019-03-25T05:05:00.725Z,4.00
2019-03-25T05:06:00.683Z,4.00
2019-03-25T05:07:00.705Z,4.00
2019-03-25T05:08:00.652Z,4.00
2019-03-25T05:09:00.644Z,8.00
2019-03-25T05:10:00.636Z,4.00
2019-03-25T05:11:00.610Z,4.00
2019-03-25T05:12:00.693Z,12.00
2019-03-25T05:13:00.590Z,12.00
2019-03-25T05:14:00.597Z,12.00
2019-03-25T05:15:00.622Z,12.00
2019-03-25T05:16:00.551Z,16.00
2019-03-25T05:17:00.669Z,20.00
2019-03-25T05:18:00.523Z,20.00
2019-03-25T05:19:00.615Z,24.00
2019-03-25T05:20:00.614Z,28.00
2019-03-25T05:21:00.507Z,32.00
2019-03-25T05:22:00.503Z,36.00
2019-03-25T05:23:00.481Z,44.00
2019-03-25T05:24:00.459Z,52.00
2019-03-25T05:25:01.389Z,56.00
2019-03-25T05:26:00.458Z,60.00
2019-03-25T05:27:00.461Z,64.00
2019-03-25T05:28:00.415Z,72.00
2019-03-25T05:29:00.420Z,76.00
2019-03-25T05:30:00.470Z,80.00
2019-03-25T05:31:00.388Z,84.00
2019-03-25T05:32:00.375Z,92.00
2019-03-25T05:33:00.887Z,80.00
2019-03-25T05:34:00.369Z,88.00
2019-03-25T05:35:00.378Z,112.00
2019-03-25T05:36:00.452Z,124.00
2019-03-25T05:37:00.318Z,140.00
2019-03-25T05:38:00.321Z,140.00
2019-03-25T05:39:00.314Z,148.00
2019-03-25T05:40:00.346Z,160.00
2019-03-25T05:41:00.333Z,164.00
2019-03-25T05:42:00.265Z,172.00
2019-03-25T05:43:00.265Z,184.00
2019-03-25T05:44:00.294Z,196.00
2019-03-25T05:45:00.362Z,208.00
2019-03-25T05:46:00.265Z,228.00
2019-03-25T05:47:00.231Z,228.00
2019-03-25T05:48:00.208Z,232.00
2019-03-25T05:49:00.185Z,240.00
2019-03-25T05:50:00.390Z,252.00
2019-03-25T05:51:00.183Z,256.00
2019-03-25T05:52:00.256Z,268.00
2019-03-25T05:53:00.937Z,280.00
2019-03-25T05:54:00.144Z,288.00
2019-03-25T05:55:00.331Z,304.00
2019-03-25T05:56:00.122Z,308.00
2019-03-25T05:57:02.832Z,324.00
2019-03-25T05:58:00.078Z,332.00
2019-03-25T05:59:00.088Z,344.00
2019-03-25T06:00:00.351Z,356.00
2019-03-25T06:01:00.087Z,372.00
2019-03-25T06:02:00.039Z,384.00
2019-03-25T06:03:00.076Z,400.00
2019-03-25T06:04:00.032Z,412.00
2019-03-25T06:05:00.032Z,408.00
2019-03-25T06:06:00.030Z,416.00
2019-03-25T06:07:00.002Z,420.00
2019-03-25T06:07:59.989Z,428.00
2019-03-25T06:08:59.980Z,444.00
2019-03-25T06:09:59.965Z,472.00
2019-03-25T06:10:59.969Z,508.00
2019-03-25T06:11:59.965Z,532.00
2019-03-25T06:13:00.115Z,560.00
2019-03-25T06:13:59.961Z,568.00
2019-03-25T06:14:59.898Z,520.00
2019-03-25T06:16:00.077Z,816.00
2019-03-25T06:16:59.877Z,756.00
2019-03-25T06:17:59.863Z,800.00
2019-03-25T06:18:59.964Z,656.00
2019-03-25T06:19:59.856Z,792.00
2019-03-25T06:20:59.840Z,1116.00
2019-03-25T06:21:59.854Z,1304.00
2019-03-25T06:22:59.847Z,772.00
2019-03-25T06:23:59.891Z,508.00
2019-03-25T06:24:59.851Z,480.00
2019-03-25T06:25:59.805Z,588.00
2019-03-25T06:26:59.775Z,524.00
2019-03-25T06:27:59.759Z,528.00
2019-03-25T06:28:59.745Z,548.00
2019-03-25T06:29:59.888Z,540.00
2019-03-25T06:30:59.726Z,580.00
2019-03-25T06:31:59.707Z,540.00
2019-03-25T06:32:59.707Z,556.00
2019-03-25T06:33:59.715Z,604.00
2019-03-25T06:34:59.715Z,632.00
2019-03-25T06:35:59.705Z,644.00
2019-03-25T06:36:59.675Z,656.00
2019-03-25T06:37:59.659Z,664.00
2019-03-25T06:38:59.626Z,672.00
2019-03-25T06:39:59.676Z,676.00
2019-03-25T06:40:59.614Z,696.00
2019-03-25T06:41:59.745Z,712.00
2019-03-25T06:42:59.667Z,728.00
2019-03-25T06:43:59.583Z,788.00
2019-03-25T06:44:59.574Z,836.00
2019-03-25T06:45:59.587Z,952.00
2019-03-25T06:46:59.565Z,1024.00
2019-03-25T06:47:59.523Z,1180.00
2019-03-25T06:48:59.758Z,1240.00
2019-03-25T06:49:59.526Z,1200.00
2019-03-25T06:50:59.523Z,1164.00
2019-03-25T06:51:59.545Z,1228.00
2019-03-25T06:52:59.539Z,1368.00
2019-03-25T06:53:59.472Z,1456.00
2019-03-25T06:54:59.448Z,1080.00
2019-03-25T06:55:59.468Z,928.00
2019-03-25T06:56:59.464Z,920.00
2019-03-25T06:57:59.442Z,928.00
2019-03-25T06:59:00.405Z,1008.00
2019-03-25T06:59:59.394Z,1400.00
2019-03-25T07:00:59.396Z,1180.00
2019-03-25T07:01:59.908Z,1192.00
2019-03-25T07:02:59.362Z,1228.00
2019-03-25T07:03:59.376Z,1388.00
2019-03-25T07:04:59.461Z,1380.00
2019-03-25T07:05:59.422Z,1144.00
2019-03-25T07:06:59.375Z,1076.00
2019-03-25T07:07:59.312Z,1088.00
2019-03-25T07:08:59.345Z,1380.00
2019-03-25T07:09:59.313Z,1288.00
2019-03-25T07:10:59.285Z,1744.00
2019-03-25T07:11:59.290Z,1792.00
2019-03-25T07:12:59.259Z,1812.00
2019-03-25T07:13:59.246Z,1040.00
2019-03-25T07:14:59.261Z,2144.00
2019-03-25T07:15:59.209Z,1276.00
2019-03-25T07:16:59.209Z,1168.00
2019-03-25T07:17:59.223Z,1508.00
2019-03-25T07:18:59.185Z,1388.00
2019-03-25T07:19:59.209Z,1092.00
2019-03-25T07:20:59.202Z,1024.00
2019-03-25T07:21:59.151Z,1108.00
2019-03-25T07:22:59.142Z,1176.00
2019-03-25T07:23:59.145Z,1552.00
2019-03-25T07:24:59.204Z,1384.00
2019-03-25T07:25:59.318Z,1404.00
2019-03-25T07:26:59.106Z,1280.00
2019-03-25T07:27:59.080Z,1052.00
2019-03-25T07:28:59.160Z,1316.00
2019-03-25T07:29:59.077Z,1148.00
2019-03-25T07:30:59.090Z,1192.00
2019-03-25T07:31:59.081Z,1556.00
2019-03-25T07:32:59.037Z,1052.00
2019-03-25T07:33:59.015Z,984.00
2019-03-25T07:34:59.008Z,1768.00
2019-03-25T07:35:59.024Z,2504.00
2019-03-25T07:36:59.048Z,2592.00
2019-03-25T07:37:59.060Z,1456.00
2019-03-25T07:39:00.199Z,1972.00
2019-03-25T07:39:58.952Z,1860.00
2019-03-25T07:40:58.939Z,1528.00
2019-03-25T07:41:59.048Z,1764.00
2019-03-25T07:42:58.950Z,2144.00
2019-03-25T07:43:58.976Z,2036.00
2019-03-25T07:44:59.002Z,2220.00
2019-03-25T07:45:58.927Z,1560.00
2019-03-25T07:46:58.871Z,880.00
2019-03-25T07:47:58.867Z,992.00
2019-03-25T07:48:58.868Z,940.00
2019-03-25T07:49:58.996Z,1168.00
2019-03-25T07:50:58.831Z,936.00
2019-03-25T07:51:58.828Z,1276.00
2019-03-25T07:52:59.416Z,1112.00
2019-03-25T07:53:58.814Z,1252.00
2019-03-25T07:54:58.849Z,1252.00
2019-03-25T07:55:58.835Z,1244.00
2019-03-25T07:56:58.782Z,1116.00
2019-03-25T07:57:58.787Z,1060.00
2019-03-25T07:58:58.766Z,1324.00
2019-03-25T07:59:58.745Z,1188.00
2019-03-25T08:00:58.736Z,1136.00
2019-03-25T08:01:58.814Z,1272.00
2019-03-25T08:02:58.731Z,992.00
2019-03-25T08:03:58.690Z,1136.00
2019-03-25T08:04:58.670Z,1472.00
2019-03-25T08:05:58.758Z,1948.00
2019-03-25T08:06:58.675Z,3188.00
2019-03-25T08:07:58.651Z,2772.00
2019-03-25T08:09:03.604Z,1800.00
2019-03-25T08:09:59.659Z,1492.00
2019-03-25T08:10:58.627Z,2284.00
2019-03-25T08:11:58.648Z,2284.00
2019-03-25T08:12:58.696Z,3908.00
2019-03-25T08:13:58.633Z,5700.00
2019-03-25T08:14:58.638Z,3600.00
2019-03-25T08:15:58.571Z,1944.00
2019-03-25T08:16:58.568Z,1888.00
2019-03-25T08:17:58.550Z,2064.00
2019-03-25T08:18:58.573Z,2344.00
2019-03-25T08:19:58.503Z,2492.00
2019-03-25T08:20:58.500Z,2652.00
2019-03-25T08:21:58.488Z,2400.00
2019-03-25T08:22:58.504Z,1776.00
2019-03-25T08:23:58.491Z,1492.00
2019-03-25T08:24:58.607Z,1960.00
2019-03-25T08:25:58.439Z,2172.00
2019-03-25T08:26:58.441Z,2588.00
2019-03-25T08:28:00.378Z,3928.00
2019-03-25T08:28:58.415Z,5436.00
2019-03-25T08:29:58.422Z,4268.00
2019-03-25T08:30:58.428Z,2364.00
2019-03-25T08:31:59.044Z,1432.00
2019-03-25T08:32:58.364Z,1764.00
2019-03-25T08:33:58.361Z,2708.00
2019-03-25T08:34:58.354Z,3312.00
2019-03-25T08:35:58.336Z,4136.00
2019-03-25T08:36:58.368Z,4264.00
2019-03-25T08:37:58.328Z,3580.00
2019-03-25T08:38:58.302Z,2568.00
2019-03-25T08:39:58.304Z,3124.00
2019-03-25T08:40:58.303Z,2752.00
2019-03-25T08:41:58.282Z,2420.00
2019-03-25T08:42:58.308Z,1656.00
2019-03-25T08:43:58.269Z,1632.00
2019-03-25T08:44:58.225Z,1892.00
2019-03-25T08:45:58.224Z,1760.00
2019-03-25T08:46:58.248Z,1596.00
2019-03-25T08:47:58.240Z,1408.00
2019-03-25T08:48:58.360Z,1272.00
2019-03-25T08:49:58.177Z,1256.00
2019-03-25T08:50:58.167Z,1284.00
2019-03-25T08:51:58.182Z,1332.00
2019-03-25T08:52:58.151Z,1408.00
2019-03-25T08:53:58.174Z,1532.00
2019-03-25T08:54:58.135Z,1712.00
2019-03-25T08:55:58.104Z,2664.00
2019-03-25T08:56:58.109Z,2900.00
2019-03-25T08:57:58.111Z,3040.00
2019-03-25T08:58:58.104Z,3684.00
2019-03-25T08:59:58.082Z,4724.00
2019-03-25T09:00:58.058Z,4792.00
2019-03-25T09:01:58.049Z,5036.00
2019-03-25T09:02:58.030Z,3856.00
2019-03-25T09:03:58.017Z,2908.00
2019-03-25T09:04:58.230Z,2164.00
2019-03-25T09:05:59.468Z,2096.00
2019-03-25T09:06:57.986Z,2508.00
2019-03-25T09:07:58.016Z,2480.00
2019-03-25T09:08:57.975Z,1688.00
2019-03-25T09:09:57.998Z,1756.00
2019-03-25T09:10:58.007Z,1828.00
2019-03-25T09:11:57.947Z,1876.00
2019-03-25T09:12:57.913Z,1888.00
2019-03-25T09:13:57.914Z,2052.00
2019-03-25T09:14:57.914Z,2132.00
2019-03-25T09:15:57.914Z,2500.00
2019-03-25T09:17:00.472Z,2228.00
2019-03-25T09:17:57.870Z,1908.00
2019-03-25T09:18:57.850Z,1968.00
2019-03-25T09:19:57.841Z,2148.00
2019-03-25T09:20:57.828Z,2332.00
2019-03-25T09:21:57.847Z,3096.00
2019-03-25T09:22:57.802Z,3552.00
2019-03-25T09:23:57.879Z,2576.00
2019-03-25T09:24:57.833Z,4896.00
2019-03-25T09:25:57.780Z,4172.00
2019-03-25T09:26:57.756Z,4824.00
2019-03-25T09:27:57.747Z,4376.00
2019-03-25T09:28:57.923Z,3772.00
2019-03-25T09:29:57.714Z,4460.00
2019-03-25T09:30:57.716Z,5240.00
2019-03-25T09:31:57.747Z,5072.00
2019-03-25T09:32:57.677Z,3528.00
2019-03-25T09:33:57.766Z,3712.00
2019-03-25T09:34:57.665Z,4088.00
2019-03-25T09:35:57.745Z,3440.00
2019-03-25T09:36:57.648Z,3736.00
2019-03-25T09:37:57.628Z,3964.00
2019-03-25T09:38:57.622Z,2844.00
2019-03-25T09:39:57.664Z,3164.00
2019-03-25T09:40:57.598Z,3096.00
2019-03-25T09:41:57.588Z,2512.00
2019-03-25T09:42:57.592Z,1756.00
2019-03-25T09:43:57.577Z,1204.00
2019-03-25T09:44:57.573Z,996.00
2019-03-25T09:45:57.595Z,988.00
2019-03-25T09:46:57.540Z,1228.00
2019-03-25T09:47:57.551Z,2044.00
2019-03-25T09:48:57.510Z,2724.00
2019-03-25T09:49:57.544Z,2436.00
2019-03-25T09:50:57.500Z,2128.00
2019-03-25T09:51:57.481Z,2488.00
2019-03-25T09:52:57.483Z,4004.00
2019-03-25T09:53:57.469Z,4628.00
2019-03-25T09:54:57.467Z,4740.00
2019-03-25T09:55:57.484Z,4868.00
2019-03-25T09:56:57.420Z,5936.00
2019-03-25T09:57:57.406Z,5864.00
2019-03-25T09:58:57.395Z,5004.00
2019-03-25T09:59:57.408Z,2856.00
2019-03-25T10:00:57.504Z,2792.00
2019-03-25T10:01:57.426Z,2696.00
2019-03-25T10:02:57.935Z,3252.00
2019-03-25T10:03:57.432Z,4684.00
2019-03-25T10:04:57.331Z,6972.00
2019-03-25T10:05:57.310Z,9124.00
2019-03-25T10:06:57.300Z,9960.00
2019-03-25T10:07:57.329Z,7120.00
2019-03-25T10:08:57.284Z,2012.00
2019-03-25T10:09:57.264Z,820.00
2019-03-25T10:10:57.268Z,496.00
2019-03-25T10:11:57.252Z,560.00
2019-03-25T10:12:57.286Z,1024.00
2019-03-25T10:13:57.288Z,1908.00
2019-03-25T10:14:57.228Z,1876.00
2019-03-25T10:15:57.201Z,1544.00
2019-03-25T10:16:57.207Z,1552.00
2019-03-25T10:17:57.230Z,1456.00
2019-03-25T10:18:57.178Z,1432.00
2019-03-25T10:19:57.160Z,1424.00
2019-03-25T10:20:57.143Z,1420.00
2019-03-25T10:21:57.142Z,1416.00
2019-03-25T10:22:57.169Z,1416.00
2019-03-25T10:23:57.201Z,1428.00
2019-03-25T10:24:57.091Z,1432.00
2019-03-25T10:25:57.093Z,1428.00
2019-03-25T10:26:57.077Z,1432.00
2019-03-25T10:27:57.153Z,1440.00
2019-03-25T10:28:57.088Z,1436.00
2019-03-25T10:29:57.050Z,1444.00
2019-03-25T10:30:57.101Z,1456.00
2019-03-25T10:31:57.054Z,1468.00
2019-03-25T10:32:57.022Z,1484.00
2019-03-25T10:33:56.996Z,1500.00
2019-03-25T10:34:57.030Z,1504.00
2019-03-25T10:35:57.022Z,1508.00
2019-03-25T10:36:56.970Z,1532.00
2019-03-25T10:37:56.953Z,1592.00
2019-03-25T10:38:56.939Z,1664.00
2019-03-25T10:39:56.928Z,1680.00
2019-03-25T10:40:57.026Z,1684.00
2019-03-25T10:41:56.941Z,2160.00
2019-03-25T10:42:56.910Z,2912.00
2019-03-25T10:43:57.000Z,3196.00
2019-03-25T10:44:56.877Z,4656.00
2019-03-25T10:45:56.864Z,4248.00
2019-03-25T10:46:56.889Z,3984.00
2019-03-25T10:47:56.907Z,4956.00
2019-03-25T10:48:56.824Z,5312.00
2019-03-25T10:49:56.849Z,6252.00
2019-03-25T10:50:56.822Z,5860.00
2019-03-25T10:51:56.811Z,5756.00
2019-03-25T10:52:56.804Z,6192.00
2019-03-25T10:53:56.800Z,7880.00
2019-03-25T10:55:56.749Z,4968.00
2019-03-25T10:56:56.762Z,4684.00
2019-03-25T10:57:56.731Z,4584.00
2019-03-25T10:58:58.327Z,2900.00
2019-03-25T10:59:56.726Z,3224.00
2019-03-25T11:00:56.700Z,3680.00
2019-03-25T11:01:56.694Z,3868.00
2019-03-25T11:02:56.674Z,4080.00
2019-03-25T11:03:56.706Z,3132.00
2019-03-25T11:04:56.661Z,3552.00
2019-03-25T11:05:56.647Z,3264.00
2019-03-25T11:06:56.632Z,3308.00
2019-03-25T11:07:56.752Z,2820.00
2019-03-25T11:08:56.643Z,4748.00
2019-03-25T11:09:56.598Z,4920.00
2019-03-25T11:10:56.646Z,4228.00
2019-03-25T11:11:56.584Z,7536.00
2019-03-25T11:12:56.567Z,5688.00
2019-03-25T11:13:56.556Z,7488.00
2019-03-25T11:14:56.553Z,2968.00
2019-03-25T11:15:56.569Z,1728.00
2019-03-25T11:16:56.527Z,1000.00
2019-03-25T11:17:56.507Z,820.00
2019-03-25T11:18:56.490Z,1320.00
2019-03-25T11:19:56.481Z,2468.00
2019-03-25T11:20:56.528Z,3844.00
2019-03-25T11:21:56.477Z,3524.00
2019-03-25T11:22:56.446Z,3716.00
2019-03-25T11:23:56.585Z,4680.00
2019-03-25T11:24:56.430Z,3888.00
2019-03-25T11:25:56.451Z,2692.00
2019-03-25T11:26:56.566Z,2976.00
2019-03-25T11:27:56.385Z,2552.00
2019-03-25T11:28:56.384Z,2272.00
2019-03-25T11:29:56.399Z,2340.00
2019-03-25T11:30:56.381Z,1996.00
2019-03-25T11:31:56.357Z,1964.00
2019-03-25T11:32:56.400Z,1940.00
2019-03-25T11:33:56.372Z,1964.00
2019-03-25T11:34:56.328Z,2032.00
2019-03-25T11:35:56.306Z,2108.00
2019-03-25T11:36:56.314Z,2156.00
2019-03-25T11:37:56.285Z,2232.00
2019-03-25T11:38:56.324Z,2332.00
2019-03-25T11:39:56.412Z,2528.00
2019-03-25T11:40:56.238Z,2824.00
2019-03-25T11:41:56.254Z,3188.00
2019-03-25T11:42:56.357Z,3576.00
2019-03-25T11:43:56.275Z,4084.00
2019-03-25T11:44:56.213Z,4788.00
2019-03-25T11:45:56.205Z,5852.00
2019-03-25T11:46:56.189Z,6924.00
2019-03-25T11:47:56.210Z,7708.00
2019-03-25T11:48:56.200Z,7888.00
2019-03-25T11:49:56.160Z,7100.00
2019-03-25T11:50:56.236Z,5732.00
2019-03-25T11:51:56.135Z,4772.00
2019-03-25T11:52:56.183Z,4408.00
2019-03-25T11:53:56.111Z,4460.00
2019-03-25T11:54:56.131Z,4440.00
2019-03-25T11:55:56.086Z,4412.00
2019-03-25T11:56:56.101Z,4424.00
2019-03-25T11:57:56.068Z,4768.00
2019-03-25T11:58:56.078Z,4944.00
2019-03-25T11:59:56.088Z,7040.00
2019-03-25T12:00:56.025Z,7484.00
2019-03-25T12:01:56.055Z,6260.00
2019-03-25T12:02:56.009Z,5580.00
2019-03-25T12:03:56.041Z,5032.00
2019-03-25T12:04:55.989Z,5864.00
2019-03-25T12:05:55.997Z,5740.00
2019-03-25T12:06:56.060Z,5136.00
2019-03-25T12:07:55.942Z,3616.00
2019-03-25T12:08:55.991Z,2816.00
2019-03-25T12:09:55.915Z,2412.00
2019-03-25T12:10:55.906Z,2640.00
2019-03-25T12:12:02.980Z,2132.00
2019-03-25T12:12:55.909Z,1244.00
2019-03-25T12:13:55.881Z,940.00
2019-03-25T12:14:55.903Z,916.00
2019-03-25T12:15:55.905Z,940.00
2019-03-25T12:16:55.840Z,1112.00
2019-03-25T12:17:55.834Z,1216.00
2019-03-25T12:18:55.852Z,1492.00
2019-03-25T12:19:55.972Z,2968.00
2019-03-25T12:20:55.804Z,3464.00
2019-03-25T12:21:55.843Z,3956.00
2019-03-25T12:22:55.883Z,3080.00
2019-03-25T12:23:55.778Z,3384.00
2019-03-25T12:24:55.758Z,3248.00
2019-03-25T12:25:55.773Z,1800.00
2019-03-25T12:26:55.769Z,2044.00
2019-03-25T12:27:55.745Z,1924.00
2019-03-25T12:28:55.713Z,1604.00
2019-03-25T12:29:55.708Z,2412.00
2019-03-25T12:30:55.689Z,2164.00
2019-03-25T12:31:55.708Z,1612.00
2019-03-25T12:33:03.580Z,1456.00
2019-03-25T12:33:56.654Z,1660.00
2019-03-25T12:34:55.645Z,1444.00
2019-03-25T12:35:55.643Z,1432.00
2019-03-25T12:36:55.647Z,2384.00
2019-03-25T12:37:55.635Z,2568.00
2019-03-25T12:38:55.597Z,2444.00